Time;durP1;ratioP1;P1;durP2;ratioP2;P2;SDS_P1;SDS_P2;PMS_P1;PMS_P2;Temp;Humidity;BMP_temperature;BMP_pressure;BME280_temperature;BME280_humidity;BME280_pressure;Samples;Min_cycle;Max_cycle;Signal;HPM_P1;HPM_P2
2023/08/10 00:00:12;;;;;;;4.43;3.43;;;13.20;99.90;;;;;;2054142;28;20859;-83
2023/08/10 00:01:12;;;;;;;4.70;3.42;;;13.10;99.90;;;;;;2058310;28;20263;-82
2023/08/10 00:02:13;;;;;;;4.47;3.57;;;13.10;99.90;;;;;;2067829;28;20297;-82
2023/08/10 00:03:14;;;;;;;5.05;3.55;;;13.10;99.90;;;;;;2058204;28;20687;-83
2023/08/10 00:04:15;;;;;;;4.30;3.13;;;13.20;99.90;;;;;;2050549;28;20195;-83
2023/08/10 00:05:16;;;;;;;6.40;3.10;;;13.20;99.90;;;;;;2042199;29;20192;-83
2023/08/10 00:06:16;;;;;;;3.90;3.50;;;13.20;99.90;;;;;;2052387;28;20275;-84
2023/08/10 00:07:18;;;;;;;6.53;3.20;;;13.30;99.90;;;;;;2053542;28;20207;-84
2023/08/10 00:08:18;;;;;;;3.35;2.90;;;13.30;99.90;;;;;;2057814;28;20198;-82
2023/08/10 00:09:19;;;;;;;3.47;2.83;;;13.40;99.90;;;;;;2050317;28;20647;-82
2023/08/10 00:10:20;;;;;;;3.83;2.80;;;13.40;99.90;;;;;;2049949;28;20258;-82
2023/08/10 00:11:21;;;;;;;4.53;2.80;;;13.40;99.90;;;;;;2050038;28;20243;-83
2023/08/10 00:12:22;;;;;;;4.93;3.10;;;13.50;99.90;;;;;;2050539;28;20223;-84
2023/08/10 00:13:22;;;;;;;3.40;2.97;;;13.50;99.90;;;;;;2049415;28;20227;-82
2023/08/10 00:14:23;;;;;;;4.30;3.10;;;13.60;99.90;;;;;;2057349;28;20234;-83
2023/08/10 00:15:24;;;;;;;5.60;2.60;;;13.70;99.90;;;;;;2064884;28;20226;-83
2023/08/10 00:16:24;;;;;;;5.20;3.30;;;13.60;99.90;;;;;;2045154;28;20247;-83
2023/08/10 00:17:25;;;;;;;5.20;2.97;;;13.70;99.90;;;;;;2047634;28;20231;-83
2023/08/10 00:18:27;;;;;;;4.68;2.72;;;13.70;99.90;;;;;;2049985;28;20239;-84
2023/08/10 00:19:27;;;;;;;6.10;3.13;;;13.70;99.90;;;;;;2048561;28;20272;-83
2023/08/10 00:20:28;;;;;;;5.17;3.20;;;13.70;99.90;;;;;;2046303;28;20234;-82
2023/08/10 00:21:29;;;;;;;4.23;3.00;;;13.70;99.90;;;;;;2061226;28;20250;-82
2023/08/10 00:22:29;;;;;;;4.60;2.97;;;13.80;99.90;;;;;;2061136;28;20235;-82
2023/08/10 00:23:30;;;;;;;2.93;2.63;;;13.60;99.90;;;;;;2068512;28;20282;-83
2023/08/10 00:24:31;;;;;;;3.77;3.20;;;13.50;99.90;;;;;;2056486;28;20517;-83
2023/08/10 00:25:33;;;;;;;5.60;3.10;;;13.50;99.90;;;;;;2049869;28;20231;-83
2023/08/10 00:26:34;;;;;;;3.85;2.72;;;13.50;99.90;;;;;;2046544;28;20243;-83
2023/08/10 00:27:38;;;;;;;2.87;2.47;;;13.50;99.90;;;;;;2045325;29;20221;-83
2023/08/10 00:28:39;;;;;;;4.00;2.75;;;13.60;99.90;;;;;;2055527;28;20261;-83
2023/08/10 00:29:39;;;;;;;3.57;3.27;;;13.60;99.90;;;;;;2050017;28;20215;-83
2023/08/10 00:30:40;;;;;;;3.63;2.57;;;13.70;99.90;;;;;;2053411;28;20215;-84
2023/08/10 00:31:41;;;;;;;3.37;2.80;;;13.70;99.90;;;;;;2049699;28;20258;-82
2023/08/10 00:32:41;;;;;;;3.40;2.50;;;13.80;99.90;;;;;;2066259;28;20215;-83
2023/08/10 00:33:42;;;;;;;2.73;2.40;;;13.80;99.90;;;;;;2064303;28;20218;-83
2023/08/10 00:34:43;;;;;;;3.63;2.60;;;13.90;99.90;;;;;;2057956;28;20219;-82
2023/08/10 00:35:43;;;;;;;3.93;2.87;;;13.80;99.90;;;;;;2057351;28;20214;-83
2023/08/10 00:36:44;;;;;;;3.10;2.63;;;13.80;99.90;;;;;;2057519;28;21052;-83
2023/08/10 00:37:46;;;;;;;5.00;2.70;;;13.80;99.90;;;;;;2054489;28;20288;-83
2023/08/10 00:38:46;;;;;;;2.85;2.55;;;13.90;99.90;;;;;;2064105;28;20222;-83
2023/08/10 00:39:47;;;;;;;4.33;2.40;;;14.00;99.90;;;;;;2058027;28;20270;-83
2023/08/10 00:40:48;;;;;;;2.83;2.47;;;13.90;99.90;;;;;;2053456;28;20231;-84
2023/08/10 00:41:49;;;;;;;3.50;2.57;;;14.00;99.90;;;;;;2057113;28;20241;-84
2023/08/10 00:42:49;;;;;;;2.70;2.40;;;13.90;99.90;;;;;;2049529;28;20231;-84
2023/08/10 00:43:50;;;;;;;3.57;2.37;;;13.90;99.90;;;;;;2055911;28;20253;-82
2023/08/10 00:44:51;;;;;;;4.07;2.50;;;14.10;99.90;;;;;;2053541;28;20247;-83
2023/08/10 00:45:52;;;;;;;4.77;2.87;;;14.00;99.90;;;;;;2046981;29;20254;-84
2023/08/10 00:46:53;;;;;;;3.50;2.50;;;14.00;99.90;;;;;;2057458;28;20790;-84
2023/08/10 00:47:54;;;;;;;3.50;2.30;;;13.90;99.90;;;;;;2049658;28;20429;-84
2023/08/10 00:48:55;;;;;;;3.53;2.40;;;14.00;99.90;;;;;;2048779;28;20223;-83
2023/08/10 00:49:56;;;;;;;3.33;2.37;;;14.00;99.90;;;;;;2057835;28;20215;-83
2023/08/10 00:50:57;;;;;;;3.10;2.53;;;14.00;99.90;;;;;;2050734;28;20338;-83
2023/08/10 00:51:57;;;;;;;3.03;2.20;;;13.80;99.90;;;;;;2055365;28;20669;-83
2023/08/10 00:52:58;;;;;;;2.43;2.10;;;13.90;99.90;;;;;;2060165;28;20284;-83
2023/08/10 00:54:00;;;;;;;1.90;1.70;;;13.90;99.90;;;;;;2048946;28;20215;-83
2023/08/10 00:55:01;;;;;;;3.78;2.63;;;13.90;99.90;;;;;;2047301;28;20238;-83
2023/08/10 00:56:04;;;;;;;3.40;2.47;;;13.90;99.90;;;;;;2049476;28;20188;-83
2023/08/10 00:57:05;;;;;;;2.83;2.20;;;13.70;99.90;;;;;;2049454;28;20751;-83
2023/08/10 00:58:06;;;;;;;3.93;2.10;;;13.80;99.90;;;;;;2046119;29;20239;-83
2023/08/10 00:59:07;;;;;;;3.30;2.30;;;13.80;99.90;;;;;;2052771;28;20194;-83
2023/08/10 01:00:10;;;;;;;2.60;2.30;;;13.90;99.90;;;;;;2056609;28;20205;-84
2023/08/10 01:01:11;;;;;;;3.80;2.38;;;13.90;99.90;;;;;;2045216;28;20747;-83
2023/08/10 01:02:11;;;;;;;4.00;2.73;;;13.90;99.90;;;;;;2049970;28;20191;-83
2023/08/10 01:03:12;;;;;;;4.97;2.47;;;13.80;99.90;;;;;;2048123;28;20278;-83
2023/08/10 01:04:13;;;;;;;3.17;2.30;;;13.80;99.90;;;;;;2040427;29;20188;-84
2023/08/10 01:05:14;;;;;;;3.57;2.47;;;13.80;99.90;;;;;;2057266;28;20659;-84
2023/08/10 01:06:36;;;;;;;3.37;2.70;;;13.90;99.90;;;;;;2060829;28;20292;-84
2023/08/10 01:08:39;;;;;;;3.53;2.78;;;14.00;99.90;;;;;;2055230;28;20826;-84
2023/08/10 01:10:01;;;;;;;3.72;2.03;;;13.90;99.90;;;;;;2050790;28;20225;-83
2023/08/10 01:11:11;;;;;;;3.47;2.70;;;14.00;99.90;;;;;;2055636;28;20221;-82
2023/08/10 01:12:45;;;;;;;2.80;2.05;;;14.00;99.90;;;;;;2054459;28;20230;-83
2023/08/10 01:14:30;;;;;;;3.58;2.25;;;14.00;99.90;;;;;;2057269;28;20225;-82
2023/08/10 01:16:04;;;;;;;3.80;2.38;;;14.00;99.90;;;;;;2051485;28;20298;-83
2023/08/10 01:17:12;;;;;;;3.10;2.20;;;14.00;99.90;;;;;;2046530;28;20230;-83
2023/08/10 01:18:25;;;;;;;3.15;2.22;;;14.10;99.90;;;;;;2041560;28;20287;-83
2023/08/10 01:19:36;;;;;;;2.97;2.45;;;14.20;99.90;;;;;;2048736;28;20227;-83
2023/08/10 01:20:40;;;;;;;3.55;2.42;;;14.20;99.90;;;;;;2054543;28;20726;-83
2023/08/10 01:22:02;;;;;;;2.78;2.50;;;14.30;99.90;;;;;;2057127;28;20226;-82
2023/08/10 01:23:29;;;;;;;2.83;2.28;;;14.30;99.90;;;;;;2054935;28;20562;-83
2023/08/10 01:24:42;;;;;;;2.63;2.42;;;14.30;99.90;;;;;;2055286;28;20647;-82
2023/08/10 01:25:43;;;;;;;2.58;2.30;;;14.20;99.90;;;;;;2054458;28;20667;-82
2023/08/10 01:26:45;;;;;;;5.57;2.55;;;14.20;99.90;;;;;;2048183;28;20699;-83
2023/08/10 01:27:46;;;;;;;2.78;2.35;;;14.10;99.90;;;;;;2056916;28;20278;-83
2023/08/10 01:28:47;;;;;;;3.67;2.40;;;14.30;99.90;;;;;;2065304;28;20214;-82
2023/08/10 01:29:47;;;;;;;3.50;2.37;;;14.40;99.90;;;;;;2048202;28;20227;-83
2023/08/10 01:30:49;;;;;;;5.40;2.13;;;14.30;99.90;;;;;;2040580;28;20216;-82
2023/08/10 01:31:49;;;;;;;5.45;1.95;;;14.40;99.90;;;;;;2042082;28;20212;-83
2023/08/10 01:32:53;;;;;;;5.17;2.40;;;14.40;99.90;;;;;;2040112;29;20234;-82
2023/08/10 01:33:54;;;;;;;2.25;2.00;;;14.50;99.90;;;;;;2049691;28;20231;-82
2023/08/10 01:34:55;;;;;;;2.07;1.97;;;14.50;99.90;;;;;;2056788;28;20253;-81
2023/08/10 01:35:56;;;;;;;3.08;2.60;;;14.60;99.90;;;;;;2057369;28;20715;-83
2023/08/10 01:36:57;;;;;;;2.60;2.17;;;14.50;99.90;;;;;;2065032;28;20218;-83
2023/08/10 01:37:58;;;;;;;2.67;2.10;;;14.60;99.90;;;;;;2064396;28;20313;-82
2023/08/10 01:38:58;;;;;;;3.10;2.10;;;14.60;99.90;;;;;;2057313;28;20226;-83
2023/08/10 01:40:00;;;;;;;3.27;2.10;;;14.50;99.90;;;;;;2054212;28;20353;-84
2023/08/10 01:41:00;;;;;;;3.22;2.13;;;14.50;99.90;;;;;;2048542;28;20227;-82
2023/08/10 01:42:01;;;;;;;3.13;2.37;;;14.50;99.90;;;;;;2059052;28;20190;-83
2023/08/10 01:43:02;;;;;;;3.43;2.40;;;14.50;99.90;;;;;;2057103;28;20278;-82
2023/08/10 01:44:03;;;;;;;2.42;2.15;;;14.30;99.90;;;;;;2063575;28;20206;-82
2023/08/10 01:45:05;;;;;;;2.30;2.07;;;14.40;99.90;;;;;;2063953;28;20237;-81
2023/08/10 01:46:12;;;;;;;4.22;2.30;;;14.40;99.90;;;;;;2064157;28;20195;-82
2023/08/10 01:47:27;;;;;;;4.15;2.13;;;14.50;99.90;;;;;;2074220;28;20193;-82
2023/08/10 01:48:36;;;;;;;4.03;2.20;;;14.40;99.90;;;;;;2065199;28;20214;-81
2023/08/10 01:49:38;;;;;;;2.90;2.37;;;14.50;99.90;;;;;;2059114;28;20270;-82
2023/08/10 01:50:44;;;;;;;2.65;2.13;;;14.50;99.90;;;;;;2057410;28;20461;-82
2023/08/10 01:51:48;;;;;;;3.75;1.80;;;14.50;99.90;;;;;;2052640;28;20227;-82
2023/08/10 01:52:59;;;;;;;2.28;2.08;;;14.50;99.90;;;;;;2056949;28;20234;-82
2023/08/10 01:54:03;;;;;;;2.33;2.00;;;14.50;99.90;;;;;;2064258;28;20229;-82
2023/08/10 01:55:07;;;;;;;2.42;2.22;;;14.40;99.90;;;;;;2049424;28;20216;-82
2023/08/10 01:56:07;;;;;;;2.50;1.80;;;14.40;99.90;;;;;;2049824;28;20224;-82
2023/08/10 01:57:08;;;;;;;2.50;2.03;;;14.50;99.90;;;;;;2065651;28;20175;-82
2023/08/10 01:58:09;;;;;;;2.60;2.10;;;14.40;99.90;;;;;;2051726;28;20220;-83
2023/08/10 01:59:10;;;;;;;2.10;1.90;;;14.50;99.90;;;;;;2065214;28;20183;-82
2023/08/10 02:00:12;;;;;;;2.42;1.95;;;14.50;99.90;;;;;;2056533;28;20194;-83
2023/08/10 02:01:13;;;;;;;3.10;2.33;;;14.50;99.90;;;;;;2060891;28;20251;-82
2023/08/10 02:02:13;;;;;;;2.40;2.20;;;14.40;99.90;;;;;;2050418;28;20212;-82
2023/08/10 02:03:14;;;;;;;2.33;2.13;;;14.50;99.90;;;;;;2049158;28;20328;-82
2023/08/10 02:04:15;;;;;;;2.60;2.37;;;14.60;99.90;;;;;;2056445;28;20190;-82
2023/08/10 02:05:15;;;;;;;2.70;1.77;;;14.60;99.90;;;;;;2054994;28;20199;-82
2023/08/10 02:06:16;;;;;;;2.20;2.00;;;14.60;99.90;;;;;;2049196;28;20211;-82
2023/08/10 02:07:17;;;;;;;2.77;2.20;;;14.70;99.90;;;;;;2062833;28;20199;-82
2023/08/10 02:08:17;;;;;;;2.60;1.87;;;14.70;99.90;;;;;;2056717;28;20183;-83
2023/08/10 02:09:18;;;;;;;2.50;1.90;;;14.70;99.90;;;;;;2048390;28;20264;-82
2023/08/10 02:10:19;;;;;;;2.83;2.17;;;14.60;99.90;;;;;;2063471;28;20215;-82
2023/08/10 02:11:21;;;;;;;4.20;2.60;;;14.70;99.90;;;;;;2060799;28;20191;-82
2023/08/10 02:12:22;;;;;;;2.33;2.13;;;14.60;99.90;;;;;;2051519;28;20239;-82
2023/08/10 02:13:22;;;;;;;2.43;2.20;;;14.60;99.90;;;;;;2047448;28;20220;-82
2023/08/10 02:14:23;;;;;;;4.03;2.30;;;14.70;99.90;;;;;;2063521;28;20218;-82
2023/08/10 02:15:24;;;;;;;3.10;2.50;;;14.60;99.90;;;;;;2062864;28;20227;-82
2023/08/10 02:16:25;;;;;;;3.53;2.58;;;14.60;99.90;;;;;;2061211;28;20335;-82
2023/08/10 02:17:28;;;;;;;2.53;2.20;;;14.70;99.90;;;;;;2065028;28;20268;-82
2023/08/10 02:18:30;;;;;;;2.58;2.30;;;14.70;99.90;;;;;;2061036;28;20206;-83
2023/08/10 02:19:30;;;;;;;2.90;2.35;;;14.60;99.90;;;;;;2043518;28;20238;-84
2023/08/10 02:20:31;;;;;;;2.93;2.40;;;14.60;99.90;;;;;;2057378;28;20231;-83
2023/08/10 02:21:32;;;;;;;3.23;2.23;;;14.60;99.90;;;;;;2048231;28;20223;-84
2023/08/10 02:22:33;;;;;;;2.72;2.25;;;14.70;99.90;;;;;;2046227;28;20222;-83
2023/08/10 02:23:35;;;;;;;2.97;2.17;;;14.80;99.90;;;;;;2044917;28;20234;-83
2023/08/10 02:24:35;;;;;;;3.47;2.25;;;14.70;99.90;;;;;;2050804;28;20223;-84
2023/08/10 02:25:36;;;;;;;3.10;2.30;;;14.80;99.90;;;;;;2057721;28;20784;-84
2023/08/10 02:26:37;;;;;;;3.77;2.23;;;14.80;99.90;;;;;;2049765;28;20226;-83
2023/08/10 02:27:40;;;;;;;3.10;2.40;;;14.70;99.90;;;;;;2051000;28;20219;-83
2023/08/10 02:28:40;;;;;;;2.85;1.92;;;14.80;99.90;;;;;;2050174;28;20227;-83
2023/08/10 02:29:41;;;;;;;2.60;2.13;;;14.80;99.90;;;;;;2052829;28;20247;-83
2023/08/10 02:30:42;;;;;;;2.40;2.20;;;14.90;99.90;;;;;;2057711;28;20229;-83
2023/08/10 02:31:44;;;;;;;3.70;2.30;;;14.70;99.90;;;;;;2050576;28;20215;-83
2023/08/10 02:32:44;;;;;;;2.60;2.30;;;14.80;99.90;;;;;;2054042;28;20234;-82
2023/08/10 02:33:45;;;;;;;2.77;2.50;;;14.70;99.90;;;;;;2053033;28;20381;-83
2023/08/10 02:34:46;;;;;;;3.22;2.35;;;14.70;99.90;;;;;;2054527;28;20254;-84
2023/08/10 02:35:47;;;;;;;4.00;2.10;;;14.70;99.90;;;;;;2052426;28;20232;-83
2023/08/10 02:36:48;;;;;;;2.50;2.30;;;14.70;99.90;;;;;;2056141;28;20253;-83
2023/08/10 02:37:49;;;;;;;3.05;2.35;;;14.70;99.90;;;;;;2057936;28;20680;-84
2023/08/10 02:38:49;;;;;;;2.53;2.13;;;14.60;99.90;;;;;;2049983;28;20219;-83
2023/08/10 02:39:50;;;;;;;2.33;2.00;;;14.60;99.90;;;;;;2042385;29;20486;-83
2023/08/10 02:40:51;;;;;;;3.60;2.10;;;14.60;99.90;;;;;;2048656;28;20215;-83
2023/08/10 02:41:52;;;;;;;3.57;2.10;;;14.50;99.90;;;;;;2054012;28;20216;-83
2023/08/10 02:42:52;;;;;;;3.00;2.50;;;14.50;99.90;;;;;;2053676;28;20235;-83
2023/08/10 02:43:53;;;;;;;3.63;2.50;;;14.40;99.90;;;;;;2045744;28;20291;-83
2023/08/10 02:44:54;;;;;;;2.70;2.50;;;14.30;99.90;;;;;;2047752;28;20243;-83
2023/08/10 02:45:55;;;;;;;2.75;2.53;;;14.30;99.90;;;;;;2047404;28;20700;-83
2023/08/10 02:46:55;;;;;;;4.40;2.57;;;14.10;99.90;;;;;;2049864;28;20234;-83
2023/08/10 02:47:56;;;;;;;2.67;2.47;;;13.90;99.90;;;;;;2050509;28;20224;-83
2023/08/10 02:48:57;;;;;;;3.13;2.47;;;13.80;99.90;;;;;;2055210;28;20218;-83
2023/08/10 02:49:57;;;;;;;2.90;2.60;;;13.80;99.90;;;;;;2063997;28;20706;-83
2023/08/10 02:50:58;;;;;;;3.00;2.47;;;13.90;99.90;;;;;;2065931;28;20284;-84
2023/08/10 02:51:59;;;;;;;2.97;2.43;;;13.80;99.90;;;;;;2050396;28;20266;-84
2023/08/10 02:52:59;;;;;;;3.00;2.70;;;13.80;99.90;;;;;;2041714;29;20232;-82
2023/08/10 02:54:00;;;;;;;4.33;2.67;;;13.80;99.90;;;;;;2049669;28;20716;-83
2023/08/10 02:55:03;;;;;;;4.47;3.10;;;13.80;99.90;;;;;;2056971;28;20303;-83
2023/08/10 02:56:04;;;;;;;2.90;2.60;;;13.80;99.90;;;;;;2050081;28;20223;-83
2023/08/10 02:57:04;;;;;;;4.37;2.73;;;13.80;99.90;;;;;;2049535;28;20199;-83
2023/08/10 02:58:05;;;;;;;4.70;2.73;;;13.80;99.90;;;;;;2057977;28;20803;-82
2023/08/10 02:59:06;;;;;;;3.80;3.07;;;13.80;99.90;;;;;;2049808;28;20266;-83
2023/08/10 03:00:07;;;;;;;3.07;2.77;;;13.80;99.90;;;;;;2053806;28;20203;-82
2023/08/10 03:01:09;;;;;;;5.00;2.97;;;13.70;99.90;;;;;;2049701;28;20243;-84
2023/08/10 03:02:09;;;;;;;3.45;2.70;;;13.70;99.90;;;;;;2041661;28;20198;-83
2023/08/10 03:03:10;;;;;;;3.03;2.73;;;13.80;99.90;;;;;;2050128;28;20590;-83
2023/08/10 03:04:12;;;;;;;3.50;3.17;;;13.80;99.90;;;;;;2045209;29;20188;-83
2023/08/10 03:05:12;;;;;;;4.43;2.85;;;13.70;99.90;;;;;;2044814;28;20739;-83
2023/08/10 03:06:13;;;;;;;4.33;3.33;;;13.70;99.90;;;;;;2047949;28;20198;-83
2023/08/10 03:07:14;;;;;;;5.00;3.10;;;13.70;99.90;;;;;;2057632;28;20279;-83
2023/08/10 03:08:15;;;;;;;5.63;3.30;;;13.70;99.90;;;;;;2047887;28;20207;-83
2023/08/10 03:09:16;;;;;;;3.42;3.10;;;13.60;99.90;;;;;;2057098;28;20191;-83
2023/08/10 03:10:16;;;;;;;5.63;2.97;;;13.50;99.90;;;;;;2057340;28;20190;-82
2023/08/10 03:11:17;;;;;;;3.70;2.93;;;13.50;99.90;;;;;;2048430;28;20286;-83
2023/08/10 03:12:18;;;;;;;3.60;3.20;;;13.50;99.90;;;;;;2057399;28;20195;-82
2023/08/10 03:13:19;;;;;;;4.38;3.50;;;13.50;99.90;;;;;;2049756;28;20744;-82
2023/08/10 03:14:20;;;;;;;6.77;3.03;;;13.40;99.90;;;;;;2048465;28;20198;-82
2023/08/10 03:15:21;;;;;;;3.33;2.97;;;13.40;99.90;;;;;;2055850;28;20606;-83
2023/08/10 03:16:21;;;;;;;4.55;3.00;;;13.40;99.90;;;;;;2049712;28;20303;-82
2023/08/10 03:17:22;;;;;;;3.63;3.33;;;13.30;99.90;;;;;;2049538;28;20828;-83
2023/08/10 03:18:23;;;;;;;4.57;4.17;;;13.30;99.90;;;;;;2054398;28;20259;-82
2023/08/10 03:19:24;;;;;;;3.63;3.33;;;13.30;99.90;;;;;;2063444;28;20230;-83
2023/08/10 03:20:25;;;;;;;3.97;3.20;;;13.30;99.90;;;;;;2063258;28;20655;-83
2023/08/10 03:21:26;;;;;;;3.67;3.30;;;13.30;99.90;;;;;;2057184;28;20241;-82
2023/08/10 03:22:27;;;;;;;7.03;3.03;;;13.20;99.90;;;;;;2053883;28;20242;-83
2023/08/10 03:23:28;;;;;;;3.67;3.10;;;13.20;99.90;;;;;;2049827;28;20239;-81
2023/08/10 03:24:28;;;;;;;3.90;3.00;;;13.20;99.90;;;;;;2049461;28;20250;-83
2023/08/10 03:25:29;;;;;;;3.50;3.20;;;13.20;99.90;;;;;;2066309;28;20316;-82
2023/08/10 03:26:30;;;;;;;4.57;3.50;;;13.20;99.90;;;;;;2059776;28;20238;-82
2023/08/10 03:27:30;;;;;;;3.63;3.13;;;13.20;99.90;;;;;;2067293;28;20238;-83
2023/08/10 03:28:31;;;;;;;4.43;3.43;;;13.20;99.90;;;;;;2049275;28;20235;-83
2023/08/10 03:29:32;;;;;;;4.23;3.37;;;13.20;99.90;;;;;;2049679;28;20231;-82
2023/08/10 03:30:33;;;;;;;3.97;3.43;;;13.10;99.90;;;;;;2050194;28;20258;-83
2023/08/10 03:31:33;;;;;;;3.97;3.30;;;13.20;99.90;;;;;;2058282;28;20738;-83
2023/08/10 03:32:34;;;;;;;4.03;3.40;;;13.10;99.90;;;;;;2059763;28;20230;-83
2023/08/10 03:33:35;;;;;;;4.67;3.80;;;13.10;99.90;;;;;;2056263;28;20373;-83
2023/08/10 03:34:35;;;;;;;7.03;3.63;;;13.00;99.90;;;;;;2049049;28;20242;-83
2023/08/10 03:35:36;;;;;;;3.80;3.40;;;13.10;99.90;;;;;;2040476;29;20228;-82
2023/08/10 03:36:37;;;;;;;4.63;3.23;;;13.00;99.90;;;;;;2049222;28;20227;-82
2023/08/10 03:37:38;;;;;;;3.47;3.00;;;13.00;99.90;;;;;;2050027;28;20624;-83
2023/08/10 03:38:38;;;;;;;4.10;2.73;;;13.10;99.90;;;;;;2041836;29;20227;-82
2023/08/10 03:39:39;;;;;;;4.90;2.80;;;13.00;99.90;;;;;;2054019;28;20281;-83
2023/08/10 03:40:40;;;;;;;3.70;3.27;;;12.90;99.90;;;;;;2053670;28;20234;-82
2023/08/10 03:41:40;;;;;;;4.33;3.13;;;13.00;99.90;;;;;;2050002;28;20238;-82
2023/08/10 03:42:41;;;;;;;3.73;3.20;;;12.90;99.90;;;;;;2049119;28;20231;-83
2023/08/10 03:43:42;;;;;;;4.60;3.70;;;12.80;99.90;;;;;;2056111;28;20207;-83
2023/08/10 03:44:42;;;;;;;4.00;3.47;;;12.80;99.90;;;;;;2048739;28;20696;-83
2023/08/10 03:45:43;;;;;;;3.70;3.13;;;12.80;99.90;;;;;;2055711;28;20215;-82
2023/08/10 03:46:44;;;;;;;5.10;3.27;;;12.80;99.90;;;;;;2059450;28;20218;-83
2023/08/10 03:47:44;;;;;;;3.50;3.20;;;12.80;99.90;;;;;;2050463;28;20228;-82
2023/08/10 03:48:45;;;;;;;3.30;2.63;;;12.80;99.90;;;;;;2048105;28;20247;-83
2023/08/10 03:49:46;;;;;;;4.87;3.73;;;12.70;99.90;;;;;;2063357;28;20263;-81
2023/08/10 03:50:48;;;;;;;4.17;3.47;;;12.70;99.90;;;;;;2056390;28;20239;-82
2023/08/10 03:51:50;;;;;;;3.92;3.53;;;12.70;99.90;;;;;;2054183;28;20222;-84
2023/08/10 03:52:51;;;;;;;4.45;3.75;;;12.70;99.90;;;;;;2050170;28;20223;-83
2023/08/10 03:53:51;;;;;;;6.33;3.40;;;12.70;99.90;;;;;;2047115;28;20216;-83
2023/08/10 03:54:52;;;;;;;4.87;3.73;;;12.70;99.90;;;;;;2047983;28;20223;-83
2023/08/10 03:55:53;;;;;;;3.80;3.00;;;12.70;99.90;;;;;;2042001;29;20220;-83
2023/08/10 03:56:53;;;;;;;4.83;3.30;;;12.80;99.90;;;;;;2049647;28;20221;-83
2023/08/10 03:57:54;;;;;;;3.80;3.30;;;12.70;99.90;;;;;;2042870;28;20255;-83
2023/08/10 03:58:55;;;;;;;4.07;3.33;;;12.70;99.90;;;;;;2049421;28;20262;-82
2023/08/10 03:59:56;;;;;;;5.65;3.92;;;12.80;99.90;;;;;;2041342;28;20352;-83
2023/08/10 04:00:56;;;;;;;4.40;3.93;;;12.70;99.90;;;;;;2044518;28;20219;-82
2023/08/10 04:01:58;;;;;;;4.93;4.00;;;12.70;99.90;;;;;;2039831;29;20224;-83
2023/08/10 04:02:58;;;;;;;5.15;4.30;;;12.60;99.90;;;;;;2040138;28;20287;-83
2023/08/10 04:03:59;;;;;;;4.70;3.10;;;12.60;99.90;;;;;;2042301;29;20804;-83
2023/08/10 04:05:05;;;;;;;3.83;3.43;;;12.60;99.90;;;;;;2048660;28;20252;-83
2023/08/10 04:06:06;;;;;;;3.78;3.20;;;12.60;99.90;;;;;;2050093;28;20730;-83
2023/08/10 04:07:07;;;;;;;5.30;3.43;;;12.60;99.90;;;;;;2049761;28;20188;-83
2023/08/10 04:08:09;;;;;;;4.13;3.30;;;12.60;99.90;;;;;;2056967;28;20182;-83
2023/08/10 04:09:10;;;;;;;4.43;3.67;;;12.60;99.90;;;;;;2061754;28;20759;-82
2023/08/10 04:10:11;;;;;;;4.65;3.20;;;12.60;99.90;;;;;;2053429;28;20575;-83
2023/08/10 04:11:12;;;;;;;4.57;3.42;;;12.60;99.90;;;;;;2049778;28;20859;-82
2023/08/10 04:12:14;;;;;;;3.43;3.13;;;12.60;99.90;;;;;;2049467;28;20193;-84
2023/08/10 04:13:15;;;;;;;5.30;3.88;;;12.60;99.90;;;;;;2057025;28;20199;-83
2023/08/10 04:14:15;;;;;;;4.10;3.70;;;12.60;99.90;;;;;;2049187;28;20215;-83
2023/08/10 04:15:16;;;;;;;4.43;3.30;;;12.50;99.90;;;;;;2048997;28;20202;-83
2023/08/10 04:16:17;;;;;;;5.53;4.53;;;12.50;99.90;;;;;;2054809;28;20183;-83
2023/08/10 04:17:18;;;;;;;8.00;4.20;;;12.50;99.90;;;;;;2049611;28;20207;-83
2023/08/10 04:18:19;;;;;;;4.85;4.10;;;12.50;99.90;;;;;;2048210;28;20195;-83
2023/08/10 04:19:20;;;;;;;5.50;4.30;;;12.50;99.90;;;;;;2055572;28;20194;-82
2023/08/10 04:20:20;;;;;;;5.27;3.43;;;12.50;99.90;;;;;;2056638;28;20298;-83
2023/08/10 04:21:21;;;;;;;4.67;3.50;;;12.50;99.90;;;;;;2057762;28;20703;-83
2023/08/10 04:22:23;;;;;;;4.07;3.30;;;12.50;99.90;;;;;;2043687;28;20239;-84
2023/08/10 04:23:23;;;;;;;5.05;3.25;;;12.50;99.90;;;;;;2049079;28;20246;-84
2023/08/10 04:24:24;;;;;;;3.80;3.40;;;12.50;99.90;;;;;;2056716;28;20238;-83
2023/08/10 04:25:26;;;;;;;8.93;4.80;;;12.50;99.90;;;;;;2057615;28;20238;-83
2023/08/10 04:26:26;;;;;;;7.15;5.47;;;12.40;99.90;;;;;;2058168;28;20230;-82
2023/08/10 04:27:27;;;;;;;9.83;5.37;;;12.40;99.90;;;;;;2050041;28;20227;-84
2023/08/10 04:28:30;;;;;;;6.60;5.13;;;12.40;99.90;;;;;;2057651;28;20245;-83
2023/08/10 04:29:32;;;;;;;6.53;4.57;;;12.40;99.90;;;;;;2065867;28;20238;-83
2023/08/10 04:30:32;;;;;;;4.70;4.28;;;12.40;99.90;;;;;;2064510;28;20254;-83
2023/08/10 04:31:33;;;;;;;5.70;4.77;;;12.40;99.90;;;;;;2050275;28;20262;-83
2023/08/10 04:32:35;;;;;;;4.50;4.10;;;12.40;99.90;;;;;;2046855;29;20291;-84
2023/08/10 04:33:36;;;;;;;4.03;3.53;;;12.40;99.90;;;;;;2054550;28;20619;-83
2023/08/10 04:34:36;;;;;;;5.47;4.47;;;12.40;99.90;;;;;;2063821;28;20221;-83
2023/08/10 04:35:37;;;;;;;5.77;3.70;;;12.40;99.90;;;;;;2061333;28;20225;-83
2023/08/10 04:36:38;;;;;;;4.53;4.03;;;12.50;99.90;;;;;;2056267;28;20231;-83
2023/08/10 04:37:38;;;;;;;4.60;4.20;;;12.40;99.90;;;;;;2049801;28;20223;-83
2023/08/10 04:38:39;;;;;;;5.53;4.53;;;12.50;99.90;;;;;;2045813;28;20845;-83
2023/08/10 04:39:41;;;;;;;5.90;4.40;;;12.40;99.90;;;;;;2045098;28;20231;-83
2023/08/10 04:40:41;;;;;;;4.45;3.92;;;12.50;99.90;;;;;;2039371;28;20228;-84
2023/08/10 04:41:42;;;;;;;5.20;3.73;;;12.40;99.90;;;;;;2053612;28;20224;-84
2023/08/10 04:42:43;;;;;;;6.17;4.13;;;12.50;99.90;;;;;;2049464;28;20219;-84
2023/08/10 04:43:44;;;;;;;5.00;4.03;;;12.60;99.90;;;;;;2049310;28;20469;-84
2023/08/10 04:44:44;;;;;;;3.90;3.50;;;12.60;99.90;;;;;;2041459;29;20330;-84
2023/08/10 04:45:45;;;;;;;3.87;3.40;;;12.60;99.90;;;;;;2041547;29;20220;-84
2023/08/10 04:46:46;;;;;;;4.70;4.07;;;12.60;99.90;;;;;;2042324;28;20224;-83
2023/08/10 04:47:47;;;;;;;6.03;4.18;;;12.60;99.90;;;;;;2054877;28;20229;-85
2023/08/10 04:48:47;;;;;;;9.23;4.90;;;12.60;99.90;;;;;;2057197;28;20727;-84
2023/08/10 04:49:48;;;;;;;11.20;4.40;;;12.60;99.90;;;;;;2045464;28;20696;-84
2023/08/10 04:50:49;;;;;;;7.57;4.43;;;12.70;99.90;;;;;;2049034;28;20308;-83
2023/08/10 04:51:49;;;;;;;4.40;3.90;;;12.60;99.90;;;;;;2048831;28;20226;-81
2023/08/10 04:52:50;;;;;;;4.70;4.03;;;12.70;99.90;;;;;;2048638;28;20723;-82
2023/08/10 04:53:51;;;;;;;5.17;4.00;;;12.70;99.90;;;;;;2047239;29;20265;-81
2023/08/10 04:54:52;;;;;;;5.13;3.77;;;12.70;99.90;;;;;;2057629;28;20270;-84
2023/08/10 04:55:52;;;;;;;6.00;3.83;;;12.70;99.90;;;;;;2053666;28;20233;-84
2023/08/10 04:56:53;;;;;;;5.20;3.40;;;12.70;99.90;;;;;;2053595;28;20211;-84
2023/08/10 04:57:54;;;;;;;3.40;3.10;;;12.70;99.90;;;;;;2048194;28;20234;-85
2023/08/10 04:58:55;;;;;;;4.07;3.60;;;12.80;99.90;;;;;;2048122;28;20233;-84
2023/08/10 04:59:55;;;;;;;4.97;3.53;;;12.70;99.90;;;;;;2048927;28;20231;-83
2023/08/10 05:00:56;;;;;;;4.40;3.17;;;12.80;99.90;;;;;;2049003;28;20227;-83
2023/08/10 05:01:57;;;;;;;3.77;3.33;;;12.90;99.90;;;;;;2047318;28;20224;-84
2023/08/10 05:02:58;;;;;;;3.72;3.15;;;12.90;99.90;;;;;;2049571;28;20800;-84
2023/08/10 05:03:59;;;;;;;5.13;3.30;;;12.90;99.90;;;;;;2039630;29;20246;-84
2023/08/10 05:05:00;;;;;;;4.50;3.03;;;12.80;99.90;;;;;;2049975;28;20263;-82
2023/08/10 05:06:00;;;;;;;3.67;3.03;;;12.80;99.90;;;;;;2055966;28;20223;-84
2023/08/10 05:07:01;;;;;;;3.43;3.13;;;12.80;99.90;;;;;;2041035;29;20244;-84
2023/08/10 05:08:02;;;;;;;3.63;3.33;;;12.90;99.90;;;;;;2041383;29;20187;-82
2023/08/10 05:09:04;;;;;;;4.03;3.13;;;12.90;99.90;;;;;;2047091;29;20187;-84
2023/08/10 05:10:07;;;;;;;5.07;3.50;;;12.90;99.90;;;;;;2057912;28;20190;-83
2023/08/10 05:11:09;;;;;;;4.50;3.63;;;12.90;99.90;;;;;;2049943;28;20266;-84
2023/08/10 05:12:10;;;;;;;3.72;3.42;;;12.90;99.90;;;;;;2046437;29;20180;-83
2023/08/10 05:13:11;;;;;;;4.80;3.88;;;12.90;99.90;;;;;;2049365;28;20275;-84
2023/08/10 05:14:12;;;;;;;10.03;4.20;;;12.90;99.90;;;;;;2045221;29;20192;-83
2023/08/10 05:15:13;;;;;;;4.63;3.63;;;12.90;99.90;;;;;;2041831;29;20220;-84
2023/08/10 05:16:14;;;;;;;5.63;3.95;;;12.90;99.90;;;;;;2051053;28;20191;-84
2023/08/10 05:17:15;;;;;;;4.05;3.65;;;12.80;99.90;;;;;;2065455;28;20186;-83
2023/08/10 05:18:23;;;;;;;3.53;3.13;;;12.60;99.90;;;;;;2057677;28;20819;-84
2023/08/10 05:19:24;;;;;;;4.35;3.30;;;12.60;99.90;;;;;;2056124;28;20297;-84
2023/08/10 05:20:24;;;;;;;4.23;3.53;;;12.80;99.90;;;;;;2057570;28;20673;-83
2023/08/10 05:21:25;;;;;;;5.13;4.50;;;12.70;99.90;;;;;;2047192;28;20605;-84
2023/08/10 05:22:26;;;;;;;4.70;3.40;;;12.80;99.90;;;;;;2045331;28;20240;-83
2023/08/10 05:23:27;;;;;;;5.17;4.10;;;12.80;99.90;;;;;;2058422;28;20238;-84